sensor_id;sensor_type;location;lat;lon;timestamp;P1;durP1;ratioP1;P2;durP2;ratioP2
71910;SDS011;59783;52.232;5.170;2023-05-07T00:02:22;56.50;;;45.40;;
71910;SDS011;59783;52.232;5.170;2023-05-07T00:04:47;56.92;;;37.58;;
71910;SDS011;59783;52.232;5.170;2023-05-07T00:07:12;48.22;;;35.47;;
71910;SDS011;59783;52.232;5.170;2023-05-07T00:09:38;56.33;;;40.23;;
71910;SDS011;59783;52.232;5.170;2023-05-07T00:12:03;50.73;;;37.20;;
71910;SDS011;59783;52.232;5.170;2023-05-07T00:14:28;43.83;;;34.53;;
71910;SDS011;59783;52.232;5.170;2023-05-07T00:16:53;45.13;;;37.03;;
71910;SDS011;59783;52.232;5.170;2023-05-07T00:19:19;46.70;;;36.93;;
71910;SDS011;59783;52.232;5.170;2023-05-07T00:21:44;48.40;;;39.38;;
71910;SDS011;59783;52.232;5.170;2023-05-07T00:24:09;48.57;;;38.70;;
71910;SDS011;59783;52.232;5.170;2023-05-07T00:26:34;49.40;;;43.10;;
71910;SDS011;59783;52.232;5.170;2023-05-07T00:28:59;45.10;;;37.30;;
71910;SDS011;59783;52.232;5.170;2023-05-07T00:31:25;46.87;;;38.57;;
71910;SDS011;59783;52.232;5.170;2023-05-07T00:33:50;44.70;;;39.07;;
71910;SDS011;59783;52.232;5.170;2023-05-07T00:36:15;45.03;;;36.97;;
71910;SDS011;59783;52.232;5.170;2023-05-07T00:38:40;44.80;;;36.97;;
71910;SDS011;59783;52.232;5.170;2023-05-07T00:41:05;44.17;;;36.53;;
71910;SDS011;59783;52.232;5.170;2023-05-07T00:43:31;45.35;;;36.70;;
71910;SDS011;59783;52.232;5.170;2023-05-07T00:45:56;41.75;;;35.88;;
71910;SDS011;59783;52.232;5.170;2023-05-07T00:48:22;47.37;;;36.77;;
71910;SDS011;59783;52.232;5.170;2023-05-07T00:50:49;41.88;;;32.83;;
71910;SDS011;59783;52.232;5.170;2023-05-07T00:53:14;46.45;;;36.05;;
71910;SDS011;59783;52.232;5.170;2023-05-07T00:55:39;42.10;;;37.53;;
71910;SDS011;59783;52.232;5.170;2023-05-07T00:58:05;44.70;;;35.85;;
71910;SDS011;59783;52.232;5.170;2023-05-07T01:00:30;39.97;;;33.55;;
71910;SDS011;59783;52.232;5.170;2023-05-07T01:02:56;39.80;;;33.22;;
71910;SDS011;59783;52.232;5.170;2023-05-07T01:05:22;41.72;;;35.25;;
71910;SDS011;59783;52.232;5.170;2023-05-07T01:07:48;43.88;;;33.85;;
71910;SDS011;59783;52.232;5.170;2023-05-07T01:10:14;40.90;;;34.55;;
71910;SDS011;59783;52.232;5.170;2023-05-07T01:12:39;41.10;;;34.75;;
71910;SDS011;59783;52.232;5.170;2023-05-07T01:15:05;39.53;;;33.67;;
71910;SDS011;59783;52.232;5.170;2023-05-07T01:17:35;38.55;;;33.08;;
71910;SDS011;59783;52.232;5.170;2023-05-07T01:20:01;41.08;;;33.65;;
71910;SDS011;59783;52.232;5.170;2023-05-07T01:22:28;36.50;;;32.27;;
71910;SDS011;59783;52.232;5.170;2023-05-07T01:24:53;37.67;;;33.53;;
71910;SDS011;59783;52.232;5.170;2023-05-07T01:27:21;38.83;;;32.00;;
71910;SDS011;59783;52.232;5.170;2023-05-07T01:29:46;40.88;;;34.30;;
71910;SDS011;59783;52.232;5.170;2023-05-07T01:32:11;37.00;;;32.20;;
71910;SDS011;59783;52.232;5.170;2023-05-07T01:34:37;39.28;;;32.08;;
71910;SDS011;59783;52.232;5.170;2023-05-07T01:37:02;37.83;;;32.17;;
71910;SDS011;59783;52.232;5.170;2023-05-07T01:39:28;41.20;;;33.65;;
71910;SDS011;59783;52.232;5.170;2023-05-07T01:41:54;37.03;;;32.55;;
71910;SDS011;59783;52.232;5.170;2023-05-07T01:44:20;38.67;;;33.00;;
71910;SDS011;59783;52.232;5.170;2023-05-07T01:46:46;39.42;;;33.00;;
71910;SDS011;59783;52.232;5.170;2023-05-07T01:49:12;38.22;;;33.03;;
71910;SDS011;59783;52.232;5.170;2023-05-07T01:51:37;37.63;;;32.97;;
71910;SDS011;59783;52.232;5.170;2023-05-07T01:54:02;39.83;;;32.00;;
71910;SDS011;59783;52.232;5.170;2023-05-07T01:56:27;40.47;;;34.83;;
71910;SDS011;59783;52.232;5.170;2023-05-07T01:58:53;40.10;;;33.17;;
71910;SDS011;59783;52.232;5.170;2023-05-07T02:01:18;40.17;;;33.78;;
71910;SDS011;59783;52.232;5.170;2023-05-07T02:03:43;40.57;;;34.00;;
71910;SDS011;59783;52.232;5.170;2023-05-07T02:06:08;38.42;;;32.85;;
71910;SDS011;59783;52.232;5.170;2023-05-07T02:08:34;39.67;;;32.47;;
71910;SDS011;59783;52.232;5.170;2023-05-07T02:10:59;39.20;;;33.13;;
71910;SDS011;59783;52.232;5.170;2023-05-07T02:13:26;38.45;;;34.33;;
71910;SDS011;59783;52.232;5.170;2023-05-07T02:15:51;38.22;;;34.05;;
71910;SDS011;59783;52.232;5.170;2023-05-07T02:18:17;37.50;;;33.43;;
71910;SDS011;59783;52.232;5.170;2023-05-07T02:20:42;39.22;;;33.80;;
71910;SDS011;59783;52.232;5.170;2023-05-07T02:23:08;37.77;;;33.37;;
71910;SDS011;59783;52.232;5.170;2023-05-07T02:25:33;42.15;;;32.55;;
71910;SDS011;59783;52.232;5.170;2023-05-07T02:27:58;41.13;;;33.70;;
71910;SDS011;59783;52.232;5.170;2023-05-07T02:30:24;40.30;;;35.83;;
71910;SDS011;59783;52.232;5.170;2023-05-07T02:32:50;41.28;;;35.13;;
71910;SDS011;59783;52.232;5.170;2023-05-07T02:35:15;40.97;;;34.10;;
71910;SDS011;59783;52.232;5.170;2023-05-07T02:37:40;36.83;;;30.80;;
71910;SDS011;59783;52.232;5.170;2023-05-07T02:40:05;38.60;;;34.47;;
71910;SDS011;59783;52.232;5.170;2023-05-07T02:42:31;37.60;;;32.90;;
71910;SDS011;59783;52.232;5.170;2023-05-07T02:44:56;39.03;;;34.93;;
71910;SDS011;59783;52.232;5.170;2023-05-07T02:47:21;38.00;;;34.00;;
71910;SDS011;59783;52.232;5.170;2023-05-07T02:49:47;35.55;;;31.52;;
71910;SDS011;59783;52.232;5.170;2023-05-07T02:52:12;37.95;;;33.92;;
71910;SDS011;59783;52.232;5.170;2023-05-07T02:54:37;37.07;;;33.00;;
71910;SDS011;59783;52.232;5.170;2023-05-07T02:57:02;39.20;;;34.80;;
71910;SDS011;59783;52.232;5.170;2023-05-07T02:59:28;36.10;;;32.20;;
71910;SDS011;59783;52.232;5.170;2023-05-07T03:01:53;39.75;;;35.42;;
71910;SDS011;59783;52.232;5.170;2023-05-07T03:04:18;40.70;;;36.58;;
71910;SDS011;59783;52.232;5.170;2023-05-07T03:06:44;38.67;;;31.90;;
71910;SDS011;59783;52.232;5.170;2023-05-07T03:09:09;38.75;;;34.60;;
71910;SDS011;59783;52.232;5.170;2023-05-07T03:11:34;38.57;;;34.53;;
71910;SDS011;59783;52.232;5.170;2023-05-07T03:14:00;40.22;;;35.83;;
71910;SDS011;59783;52.232;5.170;2023-05-07T03:16:25;39.95;;;35.30;;
71910;SDS011;59783;52.232;5.170;2023-05-07T03:18:51;40.75;;;33.92;;
71910;SDS011;59783;52.232;5.170;2023-05-07T03:21:16;38.73;;;33.33;;
71910;SDS011;59783;52.232;5.170;2023-05-07T03:23:41;36.33;;;31.23;;
71910;SDS011;59783;52.232;5.170;2023-05-07T03:26:07;38.10;;;31.50;;
71910;SDS011;59783;52.232;5.170;2023-05-07T03:28:32;36.80;;;32.80;;
71910;SDS011;59783;52.232;5.170;2023-05-07T03:30:57;35.90;;;32.00;;
71910;SDS011;59783;52.232;5.170;2023-05-07T03:33:22;42.40;;;38.07;;
71910;SDS011;59783;52.232;5.170;2023-05-07T03:35:47;39.17;;;32.47;;
71910;SDS011;59783;52.232;5.170;2023-05-07T03:38:13;37.90;;;32.10;;
71910;SDS011;59783;52.232;5.170;2023-05-07T03:40:38;39.03;;;31.90;;
71910;SDS011;59783;52.232;5.170;2023-05-07T03:43:03;38.67;;;32.77;;
71910;SDS011;59783;52.232;5.170;2023-05-07T03:45:28;38.43;;;32.83;;
71910;SDS011;59783;52.232;5.170;2023-05-07T03:47:53;41.20;;;36.93;;
71910;SDS011;59783;52.232;5.170;2023-05-07T03:50:19;40.53;;;34.60;;
71910;SDS011;59783;52.232;5.170;2023-05-07T03:52:44;38.83;;;33.97;;
71910;SDS011;59783;52.232;5.170;2023-05-07T03:55:10;40.05;;;33.35;;
71910;SDS011;59783;52.232;5.170;2023-05-07T03:57:35;39.43;;;34.50;;
71910;SDS011;59783;52.232;5.170;2023-05-07T04:00:00;39.17;;;34.23;;
71910;SDS011;59783;52.232;5.170;2023-05-07T04:02:25;38.67;;;33.53;;
71910;SDS011;59783;52.232;5.170;2023-05-07T04:04:51;42.03;;;34.63;;
71910;SDS011;59783;52.232;5.170;2023-05-07T04:07:16;40.05;;;34.67;;
71910;SDS011;59783;52.232;5.170;2023-05-07T04:09:42;40.67;;;32.15;;
71910;SDS011;59783;52.232;5.170;2023-05-07T04:12:07;40.40;;;35.97;;
71910;SDS011;59783;52.232;5.170;2023-05-07T04:14:32;38.67;;;32.83;;
71910;SDS011;59783;52.232;5.170;2023-05-07T04:16:58;41.47;;;34.03;;
71910;SDS011;59783;52.232;5.170;2023-05-07T04:19:23;41.28;;;34.60;;
71910;SDS011;59783;52.232;5.170;2023-05-07T04:21:49;39.80;;;33.87;;
71910;SDS011;59783;52.232;5.170;2023-05-07T04:24:14;36.45;;;31.73;;
71910;SDS011;59783;52.232;5.170;2023-05-07T04:26:39;39.00;;;32.03;;
71910;SDS011;59783;52.232;5.170;2023-05-07T04:29:05;39.22;;;32.13;;
71910;SDS011;59783;52.232;5.170;2023-05-07T04:31:30;37.57;;;33.37;;
71910;SDS011;59783;52.232;5.170;2023-05-07T04:33:55;37.30;;;32.03;;
71910;SDS011;59783;52.232;5.170;2023-05-07T04:36:20;38.33;;;33.67;;
71910;SDS011;59783;52.232;5.170;2023-05-07T04:38:46;43.22;;;38.50;;
71910;SDS011;59783;52.232;5.170;2023-05-07T04:41:12;38.70;;;32.47;;
71910;SDS011;59783;52.232;5.170;2023-05-07T04:43:37;39.33;;;33.55;;
71910;SDS011;59783;52.232;5.170;2023-05-07T04:46:02;43.23;;;38.73;;
71910;SDS011;59783;52.232;5.170;2023-05-07T04:48:27;40.40;;;34.90;;
71910;SDS011;59783;52.232;5.170;2023-05-07T04:50:54;41.67;;;34.78;;
71910;SDS011;59783;52.232;5.170;2023-05-07T04:53:19;39.28;;;33.50;;
71910;SDS011;59783;52.232;5.170;2023-05-07T04:55:45;38.72;;;34.55;;
71910;SDS011;59783;52.232;5.170;2023-05-07T04:58:10;37.45;;;31.83;;
71910;SDS011;59783;52.232;5.170;2023-05-07T05:00:36;39.08;;;33.85;;
71910;SDS011;59783;52.232;5.170;2023-05-07T05:03:01;37.37;;;32.10;;
71910;SDS011;59783;52.232;5.170;2023-05-07T05:05:26;39.27;;;31.77;;
71910;SDS011;59783;52.232;5.170;2023-05-07T05:07:51;37.83;;;31.77;;
71910;SDS011;59783;52.232;5.170;2023-05-07T05:10:17;40.88;;;31.85;;
71910;SDS011;59783;52.232;5.170;2023-05-07T05:12:42;36.30;;;32.40;;
71910;SDS011;59783;52.232;5.170;2023-05-07T05:15:07;38.03;;;32.88;;
71910;SDS011;59783;52.232;5.170;2023-05-07T05:17:33;39.92;;;32.95;;
71910;SDS011;59783;52.232;5.170;2023-05-07T05:19:59;39.40;;;31.02;;
71910;SDS011;59783;52.232;5.170;2023-05-07T05:22:25;38.83;;;31.27;;
71910;SDS011;59783;52.232;5.170;2023-05-07T05:24:50;39.20;;;33.65;;
71910;SDS011;59783;52.232;5.170;2023-05-07T05:27:15;38.00;;;32.00;;
71910;SDS011;59783;52.232;5.170;2023-05-07T05:29:41;42.00;;;33.93;;
71910;SDS011;59783;52.232;5.170;2023-05-07T05:32:06;40.33;;;35.50;;
71910;SDS011;59783;52.232;5.170;2023-05-07T05:34:31;41.80;;;33.73;;
71910;SDS011;59783;52.232;5.170;2023-05-07T05:36:58;38.05;;;34.00;;
71910;SDS011;59783;52.232;5.170;2023-05-07T05:39:23;42.63;;;33.30;;
71910;SDS011;59783;52.232;5.170;2023-05-07T05:41:48;39.40;;;34.67;;
71910;SDS011;59783;52.232;5.170;2023-05-07T05:44:14;39.47;;;33.17;;
71910;SDS011;59783;52.232;5.170;2023-05-07T05:46:39;41.10;;;33.93;;
71910;SDS011;59783;52.232;5.170;2023-05-07T05:49:04;46.33;;;41.53;;
71910;SDS011;59783;52.232;5.170;2023-05-07T05:51:32;40.22;;;33.25;;
71910;SDS011;59783;52.232;5.170;2023-05-07T05:53:57;39.70;;;32.30;;
71910;SDS011;59783;52.232;5.170;2023-05-07T05:56:22;42.27;;;33.77;;
71910;SDS011;59783;52.232;5.170;2023-05-07T05:58:48;41.10;;;35.23;;
71910;SDS011;59783;52.232;5.170;2023-05-07T06:01:13;39.47;;;32.67;;
71910;SDS011;59783;52.232;5.170;2023-05-07T06:03:38;39.37;;;34.07;;
71910;SDS011;59783;52.232;5.170;2023-05-07T06:06:03;42.07;;;36.13;;
71910;SDS011;59783;52.232;5.170;2023-05-07T06:08:29;43.77;;;34.73;;
71910;SDS011;59783;52.232;5.170;2023-05-07T06:10:54;49.38;;;37.97;;
71910;SDS011;59783;52.232;5.170;2023-05-07T06:13:19;45.40;;;35.60;;
71910;SDS011;59783;52.232;5.170;2023-05-07T06:15:45;45.03;;;35.40;;
71910;SDS011;59783;52.232;5.170;2023-05-07T06:18:10;42.43;;;35.13;;
71910;SDS011;59783;52.232;5.170;2023-05-07T06:20:35;43.57;;;35.13;;
71910;SDS011;59783;52.232;5.170;2023-05-07T06:23:00;40.40;;;34.47;;
71910;SDS011;59783;52.232;5.170;2023-05-07T06:25:25;44.22;;;34.65;;
71910;SDS011;59783;52.232;5.170;2023-05-07T06:27:51;46.30;;;34.87;;
71910;SDS011;59783;52.232;5.170;2023-05-07T06:30:16;43.80;;;34.83;;
71910;SDS011;59783;52.232;5.170;2023-05-07T06:32:41;42.20;;;35.30;;
71910;SDS011;59783;52.232;5.170;2023-05-07T06:35:06;44.63;;;35.83;;
71910;SDS011;59783;52.232;5.170;2023-05-07T06:37:31;47.03;;;37.53;;
71910;SDS011;59783;52.232;5.170;2023-05-07T06:39:57;47.00;;;36.03;;
71910;SDS011;59783;52.232;5.170;2023-05-07T06:42:22;47.65;;;39.83;;
71910;SDS011;59783;52.232;5.170;2023-05-07T06:44:47;47.63;;;38.10;;
71910;SDS011;59783;52.232;5.170;2023-05-07T06:47:12;47.00;;;37.72;;
71910;SDS011;59783;52.232;5.170;2023-05-07T06:49:37;52.47;;;40.33;;
71910;SDS011;59783;52.232;5.170;2023-05-07T06:52:03;50.57;;;40.03;;
71910;SDS011;59783;52.232;5.170;2023-05-07T06:54:28;52.10;;;41.53;;
71910;SDS011;59783;52.232;5.170;2023-05-07T06:56:53;53.60;;;38.53;;
71910;SDS011;59783;52.232;5.170;2023-05-07T06:59:19;50.00;;;40.13;;
71910;SDS011;59783;52.232;5.170;2023-05-07T07:01:44;53.23;;;39.53;;
71910;SDS011;59783;52.232;5.170;2023-05-07T07:04:09;52.85;;;38.90;;
71910;SDS011;59783;52.232;5.170;2023-05-07T07:06:34;47.20;;;36.77;;
71910;SDS011;59783;52.232;5.170;2023-05-07T07:08:59;55.07;;;46.27;;
71910;SDS011;59783;52.232;5.170;2023-05-07T07:11:25;48.95;;;38.08;;
71910;SDS011;59783;52.232;5.170;2023-05-07T07:13:50;52.08;;;39.85;;
71910;SDS011;59783;52.232;5.170;2023-05-07T07:16:15;58.87;;;43.00;;
71910;SDS011;59783;52.232;5.170;2023-05-07T07:18:41;55.38;;;41.25;;
71910;SDS011;59783;52.232;5.170;2023-05-07T07:21:06;55.33;;;38.73;;
71910;SDS011;59783;52.232;5.170;2023-05-07T07:23:31;54.33;;;40.50;;
71910;SDS011;59783;52.232;5.170;2023-05-07T07:25:56;52.10;;;38.53;;
71910;SDS011;59783;52.232;5.170;2023-05-07T07:28:21;51.70;;;38.50;;
71910;SDS011;59783;52.232;5.170;2023-05-07T07:30:46;57.95;;;39.70;;
71910;SDS011;59783;52.232;5.170;2023-05-07T07:33:12;53.50;;;39.83;;
71910;SDS011;59783;52.232;5.170;2023-05-07T07:35:37;48.67;;;38.90;;
71910;SDS011;59783;52.232;5.170;2023-05-07T07:38:02;49.80;;;37.57;;
71910;SDS011;59783;52.232;5.170;2023-05-07T07:40:27;51.23;;;40.67;;
71910;SDS011;59783;52.232;5.170;2023-05-07T07:42:53;51.50;;;40.07;;
71910;SDS011;59783;52.232;5.170;2023-05-07T07:45:18;54.03;;;45.28;;
71910;SDS011;59783;52.232;5.170;2023-05-07T07:47:43;48.43;;;38.30;;
71910;SDS011;59783;52.232;5.170;2023-05-07T07:50:09;51.60;;;40.53;;
71910;SDS011;59783;52.232;5.170;2023-05-07T07:52:34;46.22;;;38.83;;
71910;SDS011;59783;52.232;5.170;2023-05-07T07:54:59;50.83;;;38.40;;
71910;SDS011;59783;52.232;5.170;2023-05-07T07:57:24;47.92;;;36.72;;
71910;SDS011;59783;52.232;5.170;2023-05-07T07:59:50;46.90;;;38.57;;
71910;SDS011;59783;52.232;5.170;2023-05-07T08:02:15;44.88;;;37.38;;
71910;SDS011;59783;52.232;5.170;2023-05-07T08:04:40;50.58;;;40.25;;
71910;SDS011;59783;52.232;5.170;2023-05-07T08:07:06;47.85;;;38.35;;
71910;SDS011;59783;52.232;5.170;2023-05-07T08:09:32;48.63;;;38.17;;
71910;SDS011;59783;52.232;5.170;2023-05-07T08:11:57;46.73;;;36.93;;
71910;SDS011;59783;52.232;5.170;2023-05-07T08:14:22;50.35;;;39.80;;
71910;SDS011;59783;52.232;5.170;2023-05-07T08:16:47;53.23;;;39.67;;
71910;SDS011;59783;52.232;5.170;2023-05-07T08:19:12;46.23;;;37.30;;
71910;SDS011;59783;52.232;5.170;2023-05-07T08:21:39;53.47;;;40.73;;
71910;SDS011;59783;52.232;5.170;2023-05-07T08:24:04;49.60;;;39.35;;
71910;SDS011;59783;52.232;5.170;2023-05-07T08:26:29;52.97;;;38.72;;
71910;SDS011;59783;52.232;5.170;2023-05-07T08:28:55;48.03;;;39.47;;
71910;SDS011;59783;52.232;5.170;2023-05-07T08:31:20;47.93;;;37.70;;
71910;SDS011;59783;52.232;5.170;2023-05-07T08:33:45;49.00;;;40.47;;
71910;SDS011;59783;52.232;5.170;2023-05-07T08:36:10;48.57;;;38.27;;
71910;SDS011;59783;52.232;5.170;2023-05-07T08:38:35;48.47;;;39.57;;
71910;SDS011;59783;52.232;5.170;2023-05-07T08:41:00;52.57;;;39.40;;
71910;SDS011;59783;52.232;5.170;2023-05-07T08:43:26;51.67;;;39.42;;
71910;SDS011;59783;52.232;5.170;2023-05-07T08:45:53;56.63;;;40.67;;
71910;SDS011;59783;52.232;5.170;2023-05-07T08:48:19;54.10;;;40.55;;
71910;SDS011;59783;52.232;5.170;2023-05-07T08:50:45;56.60;;;42.92;;
71910;SDS011;59783;52.232;5.170;2023-05-07T08:53:10;52.70;;;40.83;;
71910;SDS011;59783;52.232;5.170;2023-05-07T08:55:35;50.87;;;40.67;;
71910;SDS011;59783;52.232;5.170;2023-05-07T08:58:01;52.23;;;41.17;;
71910;SDS011;59783;52.232;5.170;2023-05-07T09:00:26;50.80;;;41.90;;
71910;SDS011;59783;52.232;5.170;2023-05-07T09:02:52;46.80;;;38.40;;
71910;SDS011;59783;52.232;5.170;2023-05-07T09:05:17;44.88;;;39.17;;
71910;SDS011;59783;52.232;5.170;2023-05-07T09:07:42;45.20;;;39.47;;
71910;SDS011;59783;52.232;5.170;2023-05-07T09:10:07;46.77;;;39.77;;
71910;SDS011;59783;52.232;5.170;2023-05-07T09:12:33;43.22;;;36.90;;
71910;SDS011;59783;52.232;5.170;2023-05-07T09:15:00;44.38;;;36.92;;
71910;SDS011;59783;52.232;5.170;2023-05-07T09:17:25;48.05;;;39.28;;
71910;SDS011;59783;52.232;5.170;2023-05-07T09:19:50;47.40;;;41.63;;
71910;SDS011;59783;52.232;5.170;2023-05-07T09:22:15;48.67;;;37.30;;
71910;SDS011;59783;52.232;5.170;2023-05-07T09:24:41;49.67;;;38.83;;
71910;SDS011;59783;52.232;5.170;2023-05-07T09:27:12;52.65;;;41.40;;
71910;SDS011;59783;52.232;5.170;2023-05-07T09:29:38;41.28;;;36.53;;
71910;SDS011;59783;52.232;5.170;2023-05-07T09:32:07;41.73;;;34.93;;
71910;SDS011;59783;52.232;5.170;2023-05-07T09:34:32;36.90;;;33.17;;
71910;SDS011;59783;52.232;5.170;2023-05-07T09:37:04;36.00;;;32.15;;
71910;SDS011;59783;52.232;5.170;2023-05-07T09:39:42;40.47;;;33.22;;
71910;SDS011;59783;52.232;5.170;2023-05-07T09:42:10;38.35;;;34.30;;
71910;SDS011;59783;52.232;5.170;2023-05-07T09:44:36;35.75;;;31.55;;
71910;SDS011;59783;52.232;5.170;2023-05-07T09:47:02;36.05;;;32.22;;
71910;SDS011;59783;52.232;5.170;2023-05-07T09:49:29;35.08;;;31.38;;
71910;SDS011;59783;52.232;5.170;2023-05-07T09:51:55;37.03;;;33.13;;
71910;SDS011;59783;52.232;5.170;2023-05-07T09:54:21;36.53;;;32.70;;
71910;SDS011;59783;52.232;5.170;2023-05-07T09:56:50;35.90;;;31.75;;
71910;SDS011;59783;52.232;5.170;2023-05-07T09:59:16;35.50;;;30.27;;
71910;SDS011;59783;52.232;5.170;2023-05-07T10:01:42;32.17;;;28.73;;
71910;SDS011;59783;52.232;5.170;2023-05-07T10:04:07;34.42;;;30.73;;
71910;SDS011;59783;52.232;5.170;2023-05-07T10:06:34;36.22;;;32.08;;
71910;SDS011;59783;52.232;5.170;2023-05-07T10:08:59;33.08;;;29.55;;
71910;SDS011;59783;52.232;5.170;2023-05-07T10:11:25;37.17;;;33.50;;
71910;SDS011;59783;52.232;5.170;2023-05-07T10:13:50;33.57;;;29.43;;
71910;SDS011;59783;52.232;5.170;2023-05-07T10:16:16;34.45;;;30.95;;
71910;SDS011;59783;52.232;5.170;2023-05-07T10:18:42;33.28;;;28.73;;
71910;SDS011;59783;52.232;5.170;2023-05-07T10:21:08;32.25;;;28.90;;
71910;SDS011;59783;52.232;5.170;2023-05-07T10:23:36;34.13;;;30.55;;
71910;SDS011;59783;52.232;5.170;2023-05-07T10:26:02;35.25;;;30.75;;
71910;SDS011;59783;52.232;5.170;2023-05-07T10:28:29;40.38;;;36.55;;
71910;SDS011;59783;52.232;5.170;2023-05-07T10:31:02;32.25;;;28.75;;
71910;SDS011;59783;52.232;5.170;2023-05-07T10:33:29;33.95;;;29.52;;
71910;SDS011;59783;52.232;5.170;2023-05-07T10:35:58;33.40;;;29.98;;
71910;SDS011;59783;52.232;5.170;2023-05-07T10:38:24;33.88;;;29.73;;
71910;SDS011;59783;52.232;5.170;2023-05-07T10:40:50;33.30;;;29.73;;
71910;SDS011;59783;52.232;5.170;2023-05-07T10:43:15;35.33;;;31.85;;
71910;SDS011;59783;52.232;5.170;2023-05-07T10:45:41;31.83;;;28.53;;
71910;SDS011;59783;52.232;5.170;2023-05-07T10:48:06;30.13;;;25.97;;
71910;SDS011;59783;52.232;5.170;2023-05-07T10:50:33;30.13;;;26.67;;
71910;SDS011;59783;52.232;5.170;2023-05-07T10:55:42;29.42;;;25.83;;
71910;SDS011;59783;52.232;5.170;2023-05-07T11:00:48;26.75;;;23.95;;
71910;SDS011;59783;52.232;5.170;2023-05-07T11:03:14;27.38;;;23.77;;
71910;SDS011;59783;52.232;5.170;2023-05-07T11:05:40;28.75;;;22.17;;
71910;SDS011;59783;52.232;5.170;2023-05-07T11:08:05;28.50;;;24.23;;
71910;SDS011;59783;52.232;5.170;2023-05-07T11:13:15;26.50;;;23.48;;
71910;SDS011;59783;52.232;5.170;2023-05-07T11:15:44;25.30;;;22.70;;
71910;SDS011;59783;52.232;5.170;2023-05-07T11:18:10;26.02;;;23.33;;
71910;SDS011;59783;52.232;5.170;2023-05-07T11:23:08;26.55;;;23.92;;
71910;SDS011;59783;52.232;5.170;2023-05-07T11:25:33;25.73;;;23.00;;
71910;SDS011;59783;52.232;5.170;2023-05-07T11:28:04;25.63;;;23.03;;
71910;SDS011;59783;52.232;5.170;2023-05-07T11:30:29;25.67;;;21.30;;
71910;SDS011;59783;52.232;5.170;2023-05-07T11:32:55;24.58;;;22.08;;
71910;SDS011;59783;52.232;5.170;2023-05-07T11:35:22;22.27;;;19.97;;
71910;SDS011;59783;52.232;5.170;2023-05-07T11:37:47;25.42;;;22.83;;
71910;SDS011;59783;52.232;5.170;2023-05-07T11:40:13;24.75;;;22.25;;
71910;SDS011;59783;52.232;5.170;2023-05-07T11:42:39;24.75;;;22.25;;
71910;SDS011;59783;52.232;5.170;2023-05-07T11:45:06;24.15;;;20.92;;
71910;SDS011;59783;52.232;5.170;2023-05-07T11:47:32;26.88;;;24.38;;
71910;SDS011;59783;52.232;5.170;2023-05-07T11:50:04;24.63;;;20.40;;
71910;SDS011;59783;52.232;5.170;2023-05-07T11:52:30;23.95;;;21.45;;
71910;SDS011;59783;52.232;5.170;2023-05-07T11:54:55;22.13;;;19.90;;
71910;SDS011;59783;52.232;5.170;2023-05-07T11:57:24;23.70;;;21.25;;
71910;SDS011;59783;52.232;5.170;2023-05-07T11:59:59;24.52;;;22.02;;
71910;SDS011;59783;52.232;5.170;2023-05-07T12:02:24;23.52;;;20.90;;
71910;SDS011;59783;52.232;5.170;2023-05-07T12:04:53;21.85;;;19.42;;
71910;SDS011;59783;52.232;5.170;2023-05-07T12:07:18;22.70;;;20.48;;
71910;SDS011;59783;52.232;5.170;2023-05-07T12:09:44;24.40;;;21.87;;
71910;SDS011;59783;52.232;5.170;2023-05-07T12:12:09;24.83;;;22.23;;
71910;SDS011;59783;52.232;5.170;2023-05-07T12:14:42;23.65;;;21.08;;
71910;SDS011;59783;52.232;5.170;2023-05-07T12:17:07;22.42;;;20.17;;
71910;SDS011;59783;52.232;5.170;2023-05-07T12:19:33;22.77;;;18.75;;
71910;SDS011;59783;52.232;5.170;2023-05-07T12:21:58;21.55;;;19.25;;
71910;SDS011;59783;52.232;5.170;2023-05-07T12:24:24;24.30;;;21.67;;
71910;SDS011;59783;52.232;5.170;2023-05-07T12:26:49;26.73;;;24.13;;
71910;SDS011;59783;52.232;5.170;2023-05-07T12:29:14;22.20;;;19.90;;
71910;SDS011;59783;52.232;5.170;2023-05-07T12:31:40;23.35;;;20.85;;
71910;SDS011;59783;52.232;5.170;2023-05-07T12:34:06;21.40;;;19.20;;
71910;SDS011;59783;52.232;5.170;2023-05-07T12:36:38;22.77;;;19.60;;
71910;SDS011;59783;52.232;5.170;2023-05-07T12:39:04;23.67;;;21.27;;
71910;SDS011;59783;52.232;5.170;2023-05-07T12:41:29;22.23;;;19.85;;
71910;SDS011;59783;52.232;5.170;2023-05-07T12:43:56;24.20;;;21.70;;
71910;SDS011;59783;52.232;5.170;2023-05-07T12:46:21;24.67;;;22.15;;
71910;SDS011;59783;52.232;5.170;2023-05-07T12:48:48;25.02;;;22.52;;
71910;SDS011;59783;52.232;5.170;2023-05-07T12:51:13;23.47;;;20.87;;
71910;SDS011;59783;52.232;5.170;2023-05-07T12:53:40;25.45;;;21.27;;
71910;SDS011;59783;52.232;5.170;2023-05-07T12:56:09;24.02;;;20.88;;
71910;SDS011;59783;52.232;5.170;2023-05-07T12:58:34;27.07;;;21.33;;
71910;SDS011;59783;52.232;5.170;2023-05-07T13:01:01;25.10;;;22.38;;
71910;SDS011;59783;52.232;5.170;2023-05-07T13:05:52;26.70;;;23.93;;
71910;SDS011;59783;52.232;5.170;2023-05-07T13:08:36;26.13;;;22.42;;
71910;SDS011;59783;52.232;5.170;2023-05-07T13:11:02;29.73;;;24.77;;
71910;SDS011;59783;52.232;5.170;2023-05-07T13:13:29;25.10;;;22.58;;
71910;SDS011;59783;52.232;5.170;2023-05-07T13:15:54;26.55;;;23.58;;
71910;SDS011;59783;52.232;5.170;2023-05-07T13:18:19;30.73;;;23.80;;
71910;SDS011;59783;52.232;5.170;2023-05-07T13:20:45;26.13;;;23.00;;
71910;SDS011;59783;52.232;5.170;2023-05-07T13:23:10;26.63;;;23.87;;
71910;SDS011;59783;52.232;5.170;2023-05-07T13:25:35;25.30;;;22.13;;
71910;SDS011;59783;52.232;5.170;2023-05-07T13:28:00;29.57;;;26.43;;
71910;SDS011;59783;52.232;5.170;2023-05-07T13:30:25;29.30;;;25.23;;
71910;SDS011;59783;52.232;5.170;2023-05-07T13:32:51;26.43;;;23.83;;
71910;SDS011;59783;52.232;5.170;2023-05-07T13:35:17;26.77;;;24.02;;
71910;SDS011;59783;52.232;5.170;2023-05-07T13:37:42;27.38;;;24.45;;
71910;SDS011;59783;52.232;5.170;2023-05-07T13:40:07;33.03;;;29.93;;
71910;SDS011;59783;52.232;5.170;2023-05-07T13:42:32;27.80;;;25.00;;
71910;SDS011;59783;52.232;5.170;2023-05-07T13:44:58;28.58;;;25.42;;
71910;SDS011;59783;52.232;5.170;2023-05-07T13:47:23;27.55;;;24.63;;
71910;SDS011;59783;52.232;5.170;2023-05-07T13:49:48;28.90;;;25.37;;
71910;SDS011;59783;52.232;5.170;2023-05-07T13:52:16;34.38;;;30.85;;
71910;SDS011;59783;52.232;5.170;2023-05-07T13:54:41;28.95;;;24.55;;
71910;SDS011;59783;52.232;5.170;2023-05-07T13:57:07;29.13;;;23.48;;
71910;SDS011;59783;52.232;5.170;2023-05-07T13:59:32;26.90;;;23.85;;
71910;SDS011;59783;52.232;5.170;2023-05-07T14:01:57;29.77;;;25.92;;
71910;SDS011;59783;52.232;5.170;2023-05-07T14:04:23;28.37;;;25.37;;
71910;SDS011;59783;52.232;5.170;2023-05-07T14:06:48;27.90;;;24.88;;
71910;SDS011;59783;52.232;5.170;2023-05-07T14:09:13;32.33;;;29.07;;
71910;SDS011;59783;52.232;5.170;2023-05-07T14:11:38;28.63;;;25.60;;
71910;SDS011;59783;52.232;5.170;2023-05-07T14:14:04;30.08;;;25.80;;
71910;SDS011;59783;52.232;5.170;2023-05-07T14:16:29;27.95;;;24.38;;
71910;SDS011;59783;52.232;5.170;2023-05-07T14:18:55;32.95;;;29.85;;
71910;SDS011;59783;52.232;5.170;2023-05-07T14:21:20;29.43;;;26.33;;
71910;SDS011;59783;52.232;5.170;2023-05-07T14:23:45;30.13;;;26.93;;
71910;SDS011;59783;52.232;5.170;2023-05-07T14:26:11;30.95;;;26.40;;